05:06
Airports
Links
Donate
Help keep this website running!
PayPal
Bitcoin
METAR
KTEB 180451Z 06004KT 10SM OVC020 02/M04 A3020 RMK AO2 SLP225 T00171039 400330000
Current Weather Conditions at KTEB
MVFR 04:51:00 18-12-17
Automated station
Altimeter:30.20 hg
Temp:1.7°c 34°f
Dew point:-3.9°c 27°f
Wind:4 knots, 4.6 mph, 2 m/s, from 60°
Visibility:10.0 statute miles
2000(OVC) Overcast
Past METAR reports
MVFR 03:51:00 18-12-17
Automated station
Altimeter:30.21 hg
Temp:2.2°c 36°f
Dew point:-3.3°c 27°f
Wind:3 knots, 3.5 mph, 2 m/s, from 30°
Visibility:10.0 statute miles
1900(OVC) Overcast
KTEB 180351Z 03003KT 10SM OVC019 02/M03 A3021 RMK AO2 SLP230 T00221033
MVFR 02:51:00 18-12-17
Automated station
Altimeter:30.23 hg
Temp:2.2°c 36°f
Dew point:-3.3°c 27°f
Wind:0 knots, 0 mph, 0 m/s,
Variable direction
Visibility:10.0 statute miles
1900(OVC) Overcast
KTEB 180251Z 00000KT 10SM OVC019 02/M03 A3023 RMK AO2 SLP236 T00221033 58013
MVFR 01:51:00 18-12-17
Automated station
Altimeter:30.25 hg
Temp:1.7°c 34°f
Dew point:-3.3°c 27°f
Wind:3 knots, 3.5 mph, 2 m/s, from 50°
Visibility:10.0 statute miles
2200(BKN) Broken
KTEB 180151Z 05003KT 10SM BKN022 02/M03 A3025 RMK AO2 SLP242 T00171033
VFR 00:51:00 18-12-17
Automated station
Altimeter:30.26 hg
Temp:1.7°c 34°f
Dew point:-3.9°c 27°f
Wind:4 knots, 4.6 mph, 2 m/s, from 50°
Visibility:10.0 statute miles
(CLR) Clear
KTEB 180051Z 05004KT 10SM CLR 02/M04 A3026 RMK AO2 SLP245 T00171039
VFR 23:51:00 17-12-17
Automated station
Altimeter:30.27 hg
Temp:1.7°c 34°f
Dew point:-3.9°c 27°f
Wind:3 knots, 3.5 mph, 2 m/s, from 30°
Visibility:10.0 statute miles
(CLR) Clear
KTEB 172351Z 03003KT 10SM CLR 02/M04 A3027 RMK AO2 SLP249 T00171039 10033 20017 53011
TAF
KTEB 180249Z 1803/1906 VRB03KT P6SM BKN025 OVC100 FM180500 00000KT P6SM BKN020 TEMPO 1805/1809 6SM -SNPL SCT008 BKN015 FM180900 00000KT P6SM BKN015 TEMPO 1809/1812 6SM -FZRA SCT008 BKN010 FM181400 VRB03KT P6SM SCT020 BKN080 FM181700 VRB05KT P6SM FEW020 SCT250 FM182200 25006KT P6SM FEW250 FM190100 VRB04KT P6SM BKN060
Forecast at KTEB
03:00 18-12-17 to 05:00 18-12-17
Wind:3 Knots from 360°
Visibility:6.21 statute miles
2500BKN Broken
10000OVC Overcast
FM 05:00 18-12-17 to 09:00 18-12-17
Wind:0 Knots Variable direction
Visibility:6.21 statute miles
2000BKN Broken
TEMPO 05:00 18-12-17 to 09:00 18-12-17
-SN -PL
Visibility:6.0 statute miles
800SCT Scattered
1500BKN Broken
TEMPO 09:00 18-12-17 to 12:00 18-12-17
-FZRA
Visibility:6.0 statute miles
800SCT Scattered
1000BKN Broken
FM 09:00 18-12-17 to 14:00 18-12-17
Wind:0 Knots Variable direction
Visibility:6.21 statute miles
1500BKN Broken
FM 14:00 18-12-17 to 17:00 18-12-17
Wind:3 Knots from 360°
Visibility:6.21 statute miles
2000SCT Scattered
8000BKN Broken
FM 17:00 18-12-17 to 22:00 18-12-17
Wind:5 Knots from 360°
Visibility:6.21 statute miles
2000FEW A few
25000SCT Scattered
FM 22:00 18-12-17 to 01:00 19-12-17
Wind:6 Knots from 250°
Visibility:6.21 statute miles
25000FEW A few
FM 01:00 19-12-17 to 06:00 19-12-17
Wind:4 Knots from 360°
Visibility:6.21 statute miles
6000BKN Broken